Time;durP1;ratioP1;P1;durP2;ratioP2;P2;SDS_P1;SDS_P2;PMS_P1;PMS_P2;Temp;Humidity;BMP_temperature;BMP_pressure;BME280_temperature;BME280_humidity;BME280_pressure;Samples;Min_cycle;Max_cycle;Signal;HPM_P1;HPM_P2
2021/11/20 00:01:02;;;;;;;10.45;5.18;;;9.80;76.90;;;;;;5015697;28;20050;-82
2021/11/20 00:03:28;;;;;;;12.85;5.22;;;9.90;76.80;;;;;;5013483;28;20084;-81
2021/11/20 00:05:54;;;;;;;12.90;5.45;;;9.80;76.10;;;;;;5013175;28;20053;-81
2021/11/20 00:08:22;;;;;;;10.18;4.72;;;9.80;76.90;;;;;;5015454;28;20017;-83
2021/11/20 00:10:51;;;;;;;10.27;5.05;;;9.80;76.80;;;;;;5011589;28;20105;-82
2021/11/20 00:13:17;;;;;;;13.18;5.57;;;9.80;76.80;;;;;;5012077;28;20080;-82
2021/11/20 00:15:49;;;;;;;10.15;5.13;;;9.80;76.40;;;;;;5013194;28;20398;-83
2021/11/20 00:18:17;;;;;;;9.10;5.15;;;9.70;76.20;;;;;;5011802;28;20494;-82
2021/11/20 00:20:48;;;;;;;10.70;5.18;;;9.80;76.60;;;;;;5013808;28;20026;-82
2021/11/20 00:23:17;;;;;;;10.40;5.43;;;9.80;76.50;;;;;;5012670;28;20033;-82
2021/11/20 00:25:49;;;;;;;13.00;5.60;;;9.70;76.10;;;;;;5011866;28;20113;-82
2021/11/20 00:28:21;;;;;;;10.03;5.57;;;9.60;76.20;;;;;;5011350;28;20033;-82
2021/11/20 00:30:54;;;;;;;13.63;5.70;;;9.60;76.20;;;;;;4996260;28;20026;-82
2021/11/20 00:33:23;;;;;;;11.55;6.35;;;9.50;76.10;;;;;;5012940;28;20494;-82
2021/11/20 00:35:52;;;;;;;13.45;5.93;;;9.40;75.80;;;;;;5011651;28;20057;-82
2021/11/20 00:38:18;;;;;;;11.20;5.78;;;9.40;77.00;;;;;;5012382;28;20060;-81
2021/11/20 00:40:51;;;;;;;12.68;5.78;;;9.40;77.20;;;;;;5012607;28;20037;-81
2021/11/20 00:43:18;;;;;;;;;;;9.40;77.40;;;;;;5012827;28;20040;-81
2021/11/20 00:45:44;;;;;;;8.30;5.32;;;9.40;76.50;;;;;;5010857;28;20400;-81
2021/11/20 00:48:10;;;;;;;12.00;5.22;;;9.40;77.20;;;;;;5014428;28;20014;-81
2021/11/20 00:50:39;;;;;;;11.02;5.10;;;9.40;77.50;;;;;;5013629;28;20037;-81
2021/11/20 00:53:05;;;;;;;15.15;5.68;;;9.40;77.40;;;;;;5011779;28;20017;-79
2021/11/20 00:55:31;;;;;;;10.63;5.35;;;9.40;77.40;;;;;;4995451;28;20038;-80
2021/11/20 00:57:58;;;;;;;11.13;5.63;;;9.40;78.30;;;;;;5012599;28;20032;-80
2021/11/20 01:00:32;;;;;;;10.50;5.30;;;9.50;77.30;;;;;;4997769;28;20458;-82
2021/11/20 01:02:59;;;;;;;8.15;4.55;;;9.50;76.90;;;;;;5012130;28;20051;-82
2021/11/20 01:05:26;;;;;;;10.55;5.40;;;9.50;76.80;;;;;;5012476;28;20137;-80
2021/11/20 01:07:51;;;;;;;11.45;6.05;;;9.50;76.60;;;;;;5012101;28;20541;-80
2021/11/20 01:10:20;;;;;;;12.27;5.55;;;9.40;76.20;;;;;;5008139;28;20144;-83
2021/11/20 01:12:46;;;;;;;11.23;5.50;;;9.40;76.20;;;;;;5000916;28;20022;-82
2021/11/20 01:15:17;;;;;;;11.98;5.70;;;9.30;76.30;;;;;;5010483;28;20038;-82
2021/11/20 01:17:43;;;;;;;8.43;5.32;;;9.20;76.60;;;;;;4995408;28;20030;-82
2021/11/20 01:20:11;;;;;;;10.05;5.53;;;9.20;76.40;;;;;;5011863;28;20038;-82
2021/11/20 01:22:37;;;;;;;9.43;5.65;;;9.20;76.40;;;;;;4995263;28;20406;-82
2021/11/20 01:25:05;;;;;;;14.20;6.13;;;9.30;76.50;;;;;;5011563;28;20029;-82
2021/11/20 01:27:30;;;;;;;9.07;5.47;;;9.20;76.30;;;;;;4995521;28;20030;-82
2021/11/20 01:29:56;;;;;;;6.72;4.78;;;9.20;76.80;;;;;;5012224;28;20040;-82
2021/11/20 01:32:22;;;;;;;11.88;5.82;;;9.20;76.50;;;;;;5013851;28;20514;-83
2021/11/20 01:34:48;;;;;;;9.60;5.20;;;9.10;76.00;;;;;;5011542;28;20111;-83
2021/11/20 01:37:19;;;;;;;11.27;5.32;;;9.10;76.40;;;;;;5011903;28;20026;-82
2021/11/20 01:39:45;;;;;;;9.75;5.68;;;9.10;76.70;;;;;;5007455;28;20029;-83
2021/11/20 01:42:23;;;;;;;10.60;5.32;;;9.10;76.50;;;;;;5011519;28;20052;-83
2021/11/20 01:45:04;;;;;;;8.75;5.55;;;9.10;76.40;;;;;;4994163;28;20026;-82
2021/11/20 01:47:36;;;;;;;10.43;5.35;;;9.10;76.30;;;;;;5013289;28;20025;-82
2021/11/20 01:50:10;;;;;;;10.93;5.72;;;9.20;76.80;;;;;;4996560;28;20030;-82
2021/11/20 01:52:54;;;;;;;;;;;9.20;76.60;;;;;;5010483;28;20266;-82
2021/11/20 01:55:23;;;;;;;9.95;5.47;;;9.10;75.70;;;;;;5011155;28;19916;-82
2021/11/20 01:57:55;;;;;;;10.93;5.75;;;9.00;75.60;;;;;;5009789;28;20488;-82
2021/11/20 02:00:24;;;;;;;10.77;6.15;;;9.00;75.80;;;;;;5011107;28;20088;-81
2021/11/20 02:03:03;;;;;;;10.77;6.18;;;8.90;76.20;;;;;;4995749;28;20041;-81
2021/11/20 02:05:37;;;;;;;10.27;5.95;;;8.90;76.10;;;;;;5012643;28;20041;-81
2021/11/20 02:08:27;;;;;;;7.32;5.07;;;8.80;76.30;;;;;;5010916;28;20069;-81
2021/11/20 02:10:57;;;;;;;8.80;5.30;;;8.90;76.30;;;;;;5011069;28;20096;-81
2021/11/20 02:13:32;;;;;;;11.07;6.65;;;8.80;76.30;;;;;;4994136;28;20025;-81
2021/11/20 02:16:05;;;;;;;8.07;5.22;;;8.80;76.40;;;;;;5008997;28;20474;-80
2021/11/20 02:18:34;;;;;;;9.00;5.32;;;8.90;76.50;;;;;;5009059;28;20064;-80
2021/11/20 02:21:04;;;;;;;9.68;6.43;;;8.90;76.70;;;;;;4992575;28;20038;-81
2021/11/20 02:23:30;;;;;;;13.30;6.45;;;8.90;76.60;;;;;;5012325;28;20030;-81
2021/11/20 02:25:55;;;;;;;10.32;6.53;;;8.90;76.20;;;;;;5009141;28;20025;-81
2021/11/20 02:28:21;;;;;;;12.98;6.70;;;8.80;76.70;;;;;;4994134;28;20030;-81
2021/11/20 02:30:49;;;;;;;13.85;7.32;;;8.90;76.50;;;;;;5010532;28;20025;-81
2021/11/20 02:33:21;;;;;;;11.88;6.95;;;8.90;76.70;;;;;;5009282;28;20492;-81
2021/11/20 02:35:55;;;;;;;13.38;6.50;;;8.90;76.50;;;;;;5010926;28;20490;-81
2021/11/20 02:38:31;;;;;;;12.43;6.93;;;8.80;76.30;;;;;;4990259;28;20042;-81
2021/11/20 02:40:59;;;;;;;10.25;6.57;;;8.70;77.10;;;;;;5007508;28;20030;-81
2021/11/20 02:43:27;;;;;;;11.13;6.40;;;8.80;77.40;;;;;;5002586;28;20096;-81
2021/11/20 02:45:56;;;;;;;11.48;7.25;;;8.90;77.80;;;;;;5001273;28;20498;-81
2021/11/20 02:48:24;;;;;;;11.93;6.80;;;9.00;78.80;;;;;;4995109;28;20033;-81
2021/11/20 02:50:49;;;;;;;10.90;6.47;;;8.90;77.60;;;;;;5010997;28;20119;-81
2021/11/20 02:53:26;;;;;;;9.95;5.93;;;9.00;78.20;;;;;;5009882;28;20502;-81
2021/11/20 02:55:52;;;;;;;12.27;6.30;;;9.10;78.10;;;;;;4993702;28;20038;-81
2021/11/20 02:58:21;;;;;;;12.52;6.40;;;9.20;78.20;;;;;;5010316;28;20037;-81
2021/11/20 03:00:54;;;;;;;10.07;6.13;;;9.10;78.00;;;;;;5012807;28;20029;-81
2021/11/20 03:03:20;;;;;;;12.55;6.97;;;9.10;77.80;;;;;;5009100;28;20030;-81
2021/11/20 03:05:46;;;;;;;11.20;6.68;;;9.00;77.70;;;;;;5011074;28;20038;-81
2021/11/20 03:08:11;;;;;;;11.82;6.82;;;8.80;78.30;;;;;;5009552;28;20041;-81
2021/11/20 03:10:37;;;;;;;12.45;7.18;;;8.80;79.10;;;;;;5004020;28;20482;-80
2021/11/20 03:13:03;;;;;;;12.50;6.65;;;8.90;79.00;;;;;;5010319;28;20029;-80
2021/11/20 03:15:29;;;;;;;13.00;6.35;;;8.90;79.10;;;;;;5006884;28;20084;-80
2021/11/20 03:17:55;;;;;;;13.07;6.50;;;9.00;79.20;;;;;;5008658;28;20028;-80
2021/11/20 03:20:21;;;;;;;17.13;7.22;;;8.90;79.20;;;;;;5010874;28;20029;-80
2021/11/20 03:22:55;;;;;;;13.98;7.45;;;8.90;79.20;;;;;;4989076;28;20064;-81
2021/11/20 03:25:20;;;;;;;14.88;6.85;;;8.90;79.20;;;;;;5008481;28;20022;-81
2021/11/20 03:27:46;;;;;;;14.35;6.90;;;8.80;79.60;;;;;;5009764;28;20513;-80
2021/11/20 03:30:12;;;;;;;18.23;7.57;;;8.90;79.70;;;;;;5013462;28;20037;-81
2021/11/20 03:32:38;;;;;;;14.23;7.60;;;8.80;79.70;;;;;;5015570;28;20105;-81
2021/11/20 03:35:06;;;;;;;11.93;7.15;;;8.70;79.40;;;;;;5012695;28;20037;-80
2021/11/20 03:37:32;;;;;;;11.07;6.90;;;8.60;79.70;;;;;;5012504;28;20057;-81
2021/11/20 03:39:58;;;;;;;13.93;7.68;;;8.60;80.50;;;;;;5012142;28;20030;-81
2021/11/20 03:42:24;;;;;;;12.00;7.32;;;8.40;80.30;;;;;;5013267;28;20230;-81
2021/11/20 03:44:50;;;;;;;12.18;6.32;;;8.40;81.50;;;;;;5014170;28;20100;-81
2021/11/20 03:47:15;;;;;;;15.35;8.38;;;8.50;82.50;;;;;;5002485;28;20031;-82
2021/11/20 03:49:42;;;;;;;18.75;7.70;;;8.50;81.10;;;;;;4995099;28;20030;-81
2021/11/20 03:52:09;;;;;;;19.10;7.38;;;8.50;81.60;;;;;;5012596;28;20034;-81
2021/11/20 03:54:34;;;;;;;14.95;7.07;;;8.50;81.80;;;;;;5012380;28;20026;-81
2021/11/20 03:57:00;;;;;;;17.20;8.32;;;8.50;81.40;;;;;;5014020;28;20486;-81
2021/11/20 03:59:26;;;;;;;17.08;8.40;;;8.30;81.60;;;;;;5015590;28;20041;-82
2021/11/20 04:01:51;;;;;;;15.85;8.48;;;8.40;82.50;;;;;;5015363;28;20064;-82
2021/11/20 04:04:18;;;;;;;15.60;7.88;;;8.40;82.70;;;;;;5013561;28;20617;-82
2021/11/20 04:06:45;;;;;;;16.40;7.88;;;8.40;82.60;;;;;;5014330;28;20486;-82
2021/11/20 04:09:14;;;;;;;16.95;8.68;;;8.50;83.60;;;;;;5012030;28;20029;-82
2021/11/20 04:11:44;;;;;;;14.98;8.18;;;8.50;82.50;;;;;;4997131;28;20100;-82
2021/11/20 04:14:12;;;;;;;13.93;8.00;;;8.60;83.00;;;;;;5014451;28;20029;-82
2021/11/20 04:16:39;;;;;;;15.75;8.45;;;8.70;82.90;;;;;;4996364;28;20068;-82
2021/11/20 04:19:05;;;;;;;16.73;8.52;;;8.90;82.90;;;;;;4996074;28;20033;-82
2021/11/20 04:21:31;;;;;;;17.08;9.23;;;8.90;82.80;;;;;;5011322;28;20034;-82
2021/11/20 04:23:57;;;;;;;20.58;10.07;;;8.80;81.30;;;;;;5013079;28;20391;-81
2021/11/20 04:26:25;;;;;;;20.83;10.70;;;8.70;81.70;;;;;;5014059;28;20032;-82
2021/11/20 04:28:50;;;;;;;20.55;9.77;;;8.70;82.30;;;;;;5011566;28;20095;-81
2021/11/20 04:31:17;;;;;;;17.92;11.10;;;8.70;82.60;;;;;;4996297;28;20030;-80
2021/11/20 04:33:43;;;;;;;18.48;10.05;;;8.50;82.30;;;;;;4995589;28;20026;-81
2021/11/20 04:36:09;;;;;;;17.60;10.52;;;8.40;83.30;;;;;;5007943;28;20037;-81
2021/11/20 04:38:35;;;;;;;18.70;10.75;;;8.50;83.50;;;;;;5007856;28;20395;-81
2021/11/20 04:41:01;;;;;;;17.77;10.73;;;8.30;83.00;;;;;;5012450;28;20475;-81
2021/11/20 04:43:27;;;;;;;19.13;10.43;;;8.10;84.00;;;;;;5011275;28;20058;-80
2021/11/20 04:45:53;;;;;;;14.30;9.45;;;8.20;85.00;;;;;;5004786;28;20026;-80
2021/11/20 04:48:19;;;;;;;16.35;10.32;;;8.30;85.30;;;;;;4989156;28;20589;-80
2021/11/20 04:50:46;;;;;;;16.52;9.75;;;8.30;84.40;;;;;;5013403;28;20062;-81
2021/11/20 04:53:13;;;;;;;11.82;7.35;;;8.30;84.50;;;;;;5008112;28;20184;-80
2021/11/20 04:55:38;;;;;;;15.93;8.75;;;8.40;85.00;;;;;;5010817;28;20398;-80
2021/11/20 04:58:04;;;;;;;16.55;9.40;;;8.40;84.40;;;;;;5012534;28;20038;-80
2021/11/20 05:00:37;;;;;;;13.95;8.13;;;8.30;83.90;;;;;;4997916;28;20037;-80
2021/11/20 05:03:07;;;;;;;10.45;7.30;;;8.30;84.10;;;;;;5012345;28;20041;-80
2021/11/20 05:05:35;;;;;;;14.93;8.82;;;8.20;84.40;;;;;;5010135;28;20092;-80
2021/11/20 05:08:02;;;;;;;13.30;8.30;;;8.00;84.50;;;;;;5010294;28;20025;-80
2021/11/20 05:10:27;;;;;;;12.82;8.13;;;7.90;85.40;;;;;;5012990;28;20402;-80
2021/11/20 05:12:53;;;;;;;13.73;8.40;;;8.00;85.80;;;;;;5010548;28;20018;-81
2021/11/20 05:15:19;;;;;;;14.07;8.38;;;8.10;85.20;;;;;;5010713;28;20023;-81
2021/11/20 05:17:45;;;;;;;14.32;8.05;;;8.10;85.70;;;;;;5005237;28;20030;-80
2021/11/20 05:20:11;;;;;;;10.35;6.60;;;8.00;85.00;;;;;;4995962;28;20057;-81
2021/11/20 05:22:37;;;;;;;12.38;8.15;;;8.10;86.10;;;;;;5012486;28;20030;-80
2021/11/20 05:25:05;;;;;;;13.18;7.38;;;8.10;85.80;;;;;;5010896;28;20088;-80
2021/11/20 05:27:30;;;;;;;13.10;7.32;;;8.30;86.10;;;;;;5010486;28;20028;-81
2021/11/20 05:32:22;;;;;;;13.85;7.80;;;8.50;85.30;;;;;;5012013;28;20025;-82
2021/11/20 05:34:47;;;;;;;10.05;6.55;;;8.60;84.90;;;;;;5011831;28;20092;-80
2021/11/20 05:37:14;;;;;;;13.82;7.15;;;8.70;85.40;;;;;;5010251;28;20022;-80
2021/11/20 05:39:39;;;;;;;12.43;7.45;;;8.80;84.10;;;;;;5009746;28;20034;-81
2021/11/20 05:42:06;;;;;;;12.15;7.65;;;8.80;84.10;;;;;;5010429;28;20033;-81
2021/11/20 05:44:32;;;;;;;15.93;8.48;;;8.60;83.10;;;;;;5013507;28;20056;-80
2021/11/20 05:47:00;;;;;;;12.70;8.07;;;8.50;83.00;;;;;;5009559;28;20026;-81
2021/11/20 05:49:32;;;;;;;11.27;7.07;;;8.50;84.10;;;;;;5013228;28;20029;-81
2021/11/20 05:51:58;;;;;;;13.68;7.47;;;8.60;84.50;;;;;;5007342;28;20109;-81
2021/11/20 05:54:26;;;;;;;12.48;7.20;;;8.50;84.10;;;;;;4980140;28;20038;-81
2021/11/20 05:56:52;;;;;;;12.70;7.60;;;8.50;83.50;;;;;;5011381;28;20105;-82
2021/11/20 05:59:18;;;;;;;11.23;7.57;;;8.40;84.20;;;;;;5011425;28;20160;-82
2021/11/20 06:01:44;;;;;;;16.05;8.60;;;8.40;83.90;;;;;;5013350;28;20045;-81
2021/11/20 06:04:10;;;;;;;12.70;7.68;;;8.20;83.60;;;;;;5009991;28;20026;-81
2021/11/20 06:06:36;;;;;;;13.88;7.70;;;8.10;84.70;;;;;;5009727;28;20049;-81
2021/11/20 06:09:03;;;;;;;13.15;7.38;;;8.20;85.60;;;;;;5011313;28;20088;-82
2021/11/20 06:11:28;;;;;;;12.00;7.13;;;8.30;85.70;;;;;;5012430;28;20421;-82
2021/11/20 06:13:54;;;;;;;14.65;7.43;;;8.30;84.40;;;;;;5010637;28;20566;-82
2021/11/20 06:16:19;;;;;;;13.40;8.02;;;8.50;85.10;;;;;;5010691;28;20037;-82
2021/11/20 06:18:45;;;;;;;16.83;8.52;;;8.50;84.20;;;;;;5009337;28;20034;-82
2021/11/20 06:21:11;;;;;;;14.52;7.90;;;8.20;83.80;;;;;;5009242;28;20030;-81
2021/11/20 06:23:38;;;;;;;12.15;7.57;;;8.00;84.80;;;;;;4995345;28;20114;-81
2021/11/20 06:26:05;;;;;;;13.57;8.07;;;8.10;85.70;;;;;;4994043;28;20030;-81
2021/11/20 06:28:31;;;;;;;11.65;7.53;;;8.10;85.10;;;;;;4994793;28;20517;-80
2021/11/20 06:30:58;;;;;;;13.27;7.97;;;8.20;86.20;;;;;;5010367;28;20088;-81
2021/11/20 06:33:24;;;;;;;12.82;7.47;;;8.40;85.80;;;;;;5010724;28;20026;-80
2021/11/20 06:35:51;;;;;;;11.98;7.18;;;8.40;85.40;;;;;;4993387;28;20034;-81
2021/11/20 06:38:17;;;;;;;12.07;6.90;;;8.60;85.60;;;;;;5010646;28;20132;-81
2021/11/20 06:40:46;;;;;;;14.23;8.25;;;8.60;85.20;;;;;;5006333;28;20022;-81
2021/11/20 06:43:14;;;;;;;11.18;6.93;;;8.50;83.60;;;;;;5010724;28;20042;-82
2021/11/20 06:45:43;;;;;;;12.85;8.15;;;8.50;84.20;;;;;;5009228;28;20429;-82
2021/11/20 06:48:10;;;;;;;13.63;8.68;;;8.40;84.00;;;;;;4994845;28;20029;-84
2021/11/20 06:50:42;;;;;;;14.90;8.57;;;8.30;83.60;;;;;;4999956;28;20035;-86
2021/11/20 06:53:10;;;;;;;13.25;8.35;;;8.10;84.30;;;;;;5010343;28;20573;-86
2021/11/20 06:55:36;;;;;;;16.58;8.02;;;8.20;85.80;;;;;;5010240;28;20037;-86
2021/11/20 07:00:40;;;;;;;13.75;7.57;;;8.10;85.40;;;;;;5012287;28;20478;-84
2021/11/20 07:03:11;;;;;;;14.95;8.23;;;8.20;86.20;;;;;;4994953;28;20042;-86
2021/11/20 07:05:49;;;;;;;12.27;7.90;;;8.30;86.30;;;;;;5009219;28;20398;-88
2021/11/20 07:08:16;;;;;;;13.05;8.15;;;8.30;84.60;;;;;;5012699;28;20022;-84
2021/11/20 07:10:44;;;;;;;12.57;7.78;;;8.10;84.80;;;;;;5008872;28;20026;-87
2021/11/20 07:13:11;;;;;;;14.05;8.05;;;8.10;85.50;;;;;;5009643;28;20033;-88
2021/11/20 07:15:37;;;;;;;15.52;9.52;;;8.10;86.10;;;;;;4994615;28;20040;-86
2021/11/20 07:18:03;;;;;;;15.07;8.57;;;8.00;85.60;;;;;;5009761;28;20029;-85
2021/11/20 07:20:31;;;;;;;14.55;8.77;;;7.90;85.80;;;;;;5012044;28;20026;-85
2021/11/20 07:22:58;;;;;;;11.50;7.85;;;7.90;86.60;;;;;;5011188;28;20036;-85
2021/11/20 07:25:25;;;;;;;18.52;9.57;;;7.90;86.60;;;;;;5009399;28;20478;-87
2021/11/20 07:27:52;;;;;;;13.98;8.52;;;7.80;86.90;;;;;;5008666;28;20036;-86
2021/11/20 07:30:18;;;;;;;14.02;8.20;;;8.00;87.90;;;;;;5009456;28;20053;-83
2021/11/20 07:32:45;;;;;;;15.02;8.80;;;8.20;87.50;;;;;;5009725;28;20025;-84
2021/11/20 07:35:24;;;;;;;14.10;8.55;;;8.30;86.20;;;;;;4993020;28;20053;-86
2021/11/20 07:37:49;;;;;;;12.70;8.07;;;8.20;85.70;;;;;;5007978;28;20068;-87
2021/11/20 07:40:15;;;;;;;13.35;7.95;;;8.20;86.20;;;;;;5010070;28;20046;-87
2021/11/20 07:42:40;;;;;;;17.50;9.07;;;8.30;86.00;;;;;;5010475;28;20045;-85
2021/11/20 07:45:06;;;;;;;11.60;8.05;;;8.20;84.60;;;;;;5009231;28;20022;-86
2021/11/20 07:47:32;;;;;;;10.93;7.57;;;8.10;85.70;;;;;;5012252;28;20104;-86
2021/11/20 07:49:58;;;;;;;12.00;7.55;;;8.20;87.10;;;;;;5011593;28;20394;-87
2021/11/20 07:52:23;;;;;;;13.70;8.82;;;8.30;86.70;;;;;;4976294;28;20038;-88
2021/11/20 07:54:49;;;;;;;13.43;8.20;;;8.40;85.70;;;;;;5011625;28;20488;-86
2021/11/20 07:57:15;;;;;;;12.07;8.43;;;8.40;86.00;;;;;;5008381;28;20031;-87
2021/11/20 07:59:41;;;;;;;15.27;9.27;;;8.40;85.50;;;;;;5010747;28;20022;-85
2021/11/20 08:02:10;;;;;;;12.55;8.63;;;8.30;86.50;;;;;;5010269;28;20061;-84
2021/11/20 08:04:37;;;;;;;14.68;8.82;;;8.30;85.80;;;;;;5010237;28;20022;-84
2021/11/20 08:07:05;;;;;;;14.90;9.93;;;8.30;85.80;;;;;;4971558;28;20059;-83
2021/11/20 08:09:31;;;;;;;16.08;9.85;;;8.40;85.70;;;;;;4970346;28;20034;-83
2021/11/20 08:11:58;;;;;;;18.38;10.13;;;8.40;85.50;;;;;;4971418;28;20130;-86
2021/11/20 08:14:23;;;;;;;19.35;11.38;;;8.40;85.00;;;;;;4971532;28;20029;-84
2021/11/20 08:16:49;;;;;;;18.50;11.27;;;8.30;84.90;;;;;;4972379;28;20106;-85
2021/11/20 08:19:15;;;;;;;17.05;10.57;;;8.30;85.20;;;;;;4972758;28;20369;-86
2021/11/20 08:21:40;;;;;;;15.15;9.40;;;8.30;85.30;;;;;;4974058;28;20134;-84
2021/11/20 08:24:07;;;;;;;17.60;10.50;;;8.30;85.30;;;;;;4974386;28;20500;-82
2021/11/20 08:26:36;;;;;;;16.60;10.20;;;8.40;85.80;;;;;;4974028;28;20019;-79
2021/11/20 08:29:05;;;;;;;15.48;9.95;;;8.50;85.50;;;;;;4972047;28;20034;-72
2021/11/20 08:31:31;;;;;;;15.25;10.40;;;8.70;86.00;;;;;;4973680;28;20030;-71
2021/11/20 08:33:56;;;;;;;15.63;10.23;;;8.70;84.80;;;;;;4973740;28;20035;-73
2021/11/20 08:36:22;;;;;;;13.30;9.23;;;8.80;84.60;;;;;;4972809;28;20041;-74
2021/11/20 08:38:49;;;;;;;15.98;9.85;;;8.80;84.60;;;;;;4974405;28;20392;-74
2021/11/20 08:41:14;;;;;;;17.58;10.52;;;8.60;83.30;;;;;;4974788;28;20038;-73
2021/11/20 08:43:40;;;;;;;12.73;8.60;;;8.60;83.50;;;;;;4972112;28;20035;-73
2021/11/20 08:46:07;;;;;;;15.52;10.02;;;8.60;84.10;;;;;;4973387;28;20034;-71
2021/11/20 08:48:33;;;;;;;18.17;10.77;;;8.60;83.30;;;;;;4975221;28;20027;-71
2021/11/20 08:51:04;;;;;;;14.13;8.40;;;8.50;84.00;;;;;;4973406;28;20109;-72
2021/11/20 08:53:30;;;;;;;14.52;8.93;;;8.70;85.50;;;;;;4975609;28;20050;-73
2021/11/20 08:55:56;;;;;;;13.60;9.00;;;8.80;84.70;;;;;;4972853;28;20031;-72
2021/11/20 08:58:22;;;;;;;14.63;8.88;;;8.80;83.50;;;;;;4973440;28;20149;-72
2021/11/20 09:01:01;;;;;;;14.18;9.32;;;8.80;83.60;;;;;;4976989;28;20414;-72
2021/11/20 09:03:29;;;;;;;13.20;9.18;;;8.90;84.10;;;;;;4971474;28;20039;-72
2021/11/20 09:06:24;;;;;;;14.98;8.63;;;8.90;82.40;;;;;;4972044;28;20082;-73
2021/11/20 09:08:56;;;;;;;12.48;8.80;;;8.80;82.70;;;;;;4971187;28;20415;-73
2021/11/20 09:11:33;;;;;;;13.15;8.15;;;8.80;82.90;;;;;;4973467;28;20027;-72
2021/11/20 09:14:04;;;;;;;13.82;8.60;;;8.80;83.70;;;;;;4967371;28;20114;-69
2021/11/20 09:16:30;;;;;;;14.35;9.20;;;8.80;82.90;;;;;;4968306;28;20023;-70
2021/11/20 09:18:57;;;;;;;12.32;8.63;;;8.90;84.00;;;;;;4971405;28;20514;-70
2021/11/20 09:21:24;;;;;;;14.07;8.80;;;9.00;83.60;;;;;;4971216;28;20720;-70
2021/11/20 09:23:53;;;;;;;14.10;9.10;;;9.00;83.00;;;;;;4972424;28;20034;-71
2021/11/20 09:26:21;;;;;;;14.93;9.38;;;9.00;82.50;;;;;;4971417;28;20392;-69
2021/11/20 09:28:47;;;;;;;12.38;8.40;;;9.00;82.40;;;;;;4970743;28;20035;-71
2021/11/20 09:31:14;;;;;;;11.35;8.45;;;9.00;83.40;;;;;;4969915;28;20031;-71
2021/11/20 09:33:40;;;;;;;13.52;9.05;;;9.00;82.00;;;;;;4971488;28;20373;-70
2021/11/20 09:36:07;;;;;;;14.98;8.88;;;8.90;81.10;;;;;;4969623;28;20106;-70
2021/11/20 09:38:33;;;;;;;15.70;8.82;;;8.80;82.10;;;;;;4973066;28;20046;-70
2021/11/20 09:41:04;;;;;;;13.00;8.13;;;8.80;83.60;;;;;;4969535;28;20046;-70
2021/11/20 09:43:34;;;;;;;13.43;8.93;;;9.00;83.00;;;;;;4970019;28;20042;-70
2021/11/20 09:46:09;;;;;;;14.15;7.88;;;9.10;83.50;;;;;;4970072;28;20054;-69
2021/11/20 09:48:39;;;;;;;14.15;8.73;;;9.30;83.60;;;;;;4973935;28;20033;-70
2021/11/20 09:51:31;;;;;;;11.98;8.10;;;9.20;81.20;;;;;;4971553;28;20492;-70
2021/11/20 09:54:00;;;;;;;12.77;8.57;;;9.20;82.80;;;;;;4970240;28;20034;-71
2021/11/20 09:56:30;;;;;;;12.98;8.15;;;9.20;81.60;;;;;;4972558;28;20022;-70
2021/11/20 09:59:04;;;;;;;11.60;8.02;;;9.10;81.90;;;;;;4969405;28;20182;-70
2021/11/20 10:01:54;;;;;;;13.82;8.75;;;9.00;81.40;;;;;;4977066;28;20042;-70
2021/11/20 10:04:23;;;;;;;12.15;7.97;;;8.90;81.90;;;;;;4969194;28;20100;-70
2021/11/20 10:07:06;;;;;;;13.40;8.70;;;8.80;81.70;;;;;;4982193;28;20053;-70
2021/11/20 10:09:33;;;;;;;13.15;8.35;;;8.80;82.70;;;;;;4975074;28;20447;-70
2021/11/20 10:12:11;;;;;;;14.20;8.60;;;8.90;81.90;;;;;;4984153;28;20046;-70
2021/11/20 10:14:36;;;;;;;12.60;8.82;;;8.90;82.10;;;;;;4974407;28;20018;-70
2021/11/20 10:17:17;;;;;;;10.65;7.15;;;8.90;81.70;;;;;;4975323;28;20045;-71
2021/11/20 10:19:48;;;;;;;13.38;8.15;;;8.90;82.50;;;;;;4972285;28;20031;-70
2021/11/20 10:22:19;;;;;;;12.07;7.43;;;9.00;82.30;;;;;;4976032;28;20035;-70
2021/11/20 10:25:00;;;;;;;12.23;7.15;;;9.00;82.20;;;;;;4982576;28;20117;-71
2021/11/20 10:27:25;;;;;;;10.45;7.25;;;9.10;82.30;;;;;;4976538;28;20546;-71
2021/11/20 10:30:31;;;;;;;13.30;8.05;;;9.20;81.90;;;;;;4984645;28;20117;-71
2021/11/20 10:33:06;;;;;;;11.52;7.47;;;9.10;81.20;;;;;;4973696;28;20128;-71
2021/11/20 10:35:45;;;;;;;12.55;7.85;;;9.10;81.40;;;;;;4984226;28;20426;-70
2021/11/20 10:38:14;;;;;;;10.82;7.38;;;9.00;81.10;;;;;;4974326;28;20035;-71
2021/11/20 10:41:00;;;;;;;10.82;7.30;;;9.00;81.70;;;;;;4975752;28;20102;-73
2021/11/20 10:43:44;;;;;;;10.50;7.47;;;9.00;82.30;;;;;;4976091;28;20081;-71
2021/11/20 10:46:35;;;;;;;11.13;7.15;;;9.00;82.00;;;;;;4975201;28;20035;-71
2021/11/20 10:49:19;;;;;;;13.45;7.72;;;9.00;82.10;;;;;;4978817;28;20039;-70
2021/11/20 10:51:56;;;;;;;11.05;7.55;;;9.10;81.70;;;;;;4976032;28;20022;-70
2021/11/20 10:54:25;;;;;;;10.55;7.38;;;9.20;81.90;;;;;;4959853;28;20490;-70
2021/11/20 10:57:00;;;;;;;9.70;6.95;;;9.20;82.60;;;;;;4976909;28;20019;-70
2021/11/20 10:59:51;;;;;;;10.57;7.25;;;9.20;81.70;;;;;;4971873;28;20407;-70
2021/11/20 11:02:46;;;;;;;11.20;8.00;;;9.20;81.30;;;;;;4979834;28;20084;-70
2021/11/20 11:06:04;;;;;;;12.50;7.95;;;9.20;80.70;;;;;;4982504;28;20022;-71
2021/11/20 11:08:41;;;;;;;10.70;7.20;;;9.10;81.50;;;;;;4970094;28;20446;-69
2021/11/20 11:11:33;;;;;;;9.82;7.40;;;9.10;81.00;;;;;;4974825;28;20538;-71
2021/11/20 11:14:01;;;;;;;10.18;7.35;;;9.00;81.60;;;;;;4967065;28;20061;-68
2021/11/20 11:16:47;;;;;;;11.02;7.38;;;9.20;82.60;;;;;;4967281;28;20126;-68
2021/11/20 11:19:40;;;;;;;9.90;7.53;;;9.10;81.10;;;;;;4966504;28;20061;-68
2021/11/20 11:22:30;;;;;;;9.98;6.80;;;9.10;81.10;;;;;;4944183;28;20043;-68
2021/11/20 11:25:11;;;;;;;8.35;6.40;;;9.10;80.80;;;;;;4967298;28;20030;-69
2021/11/20 11:28:10;;;;;;;11.77;7.90;;;9.20;81.80;;;;;;4970018;28;20063;-68
2021/11/20 11:30:50;;;;;;;9.57;7.13;;;9.10;81.10;;;;;;4955583;28;20051;-69
2021/11/20 11:33:17;;;;;;;10.68;6.82;;;9.20;81.20;;;;;;4959041;28;20050;-69
2021/11/20 11:35:48;;;;;;;8.93;6.43;;;9.10;80.70;;;;;;4954235;28;20027;-69
2021/11/20 11:38:47;;;;;;;8.82;6.30;;;9.30;81.20;;;;;;4968703;28;20042;-69
2021/11/20 11:41:33;;;;;;;9.68;6.13;;;9.30;81.60;;;;;;4967809;28;20030;-69
2021/11/20 11:44:24;;;;;;;11.98;7.93;;;9.40;80.90;;;;;;5010356;28;20393;-69
2021/11/20 11:46:54;;;;;;;10.27;6.85;;;9.40;79.80;;;;;;5010476;28;20451;-69
2021/11/20 11:49:45;;;;;;;10.30;7.20;;;9.40;80.80;;;;;;4991338;28;20585;-68
2021/11/20 11:52:28;;;;;;;8.68;6.88;;;9.30;79.90;;;;;;5012197;28;20026;-69
2021/11/20 11:55:12;;;;;;;9.27;6.47;;;9.40;80.70;;;;;;5011682;28;20045;-69
2021/11/20 11:57:56;;;;;;;9.80;7.15;;;9.40;80.90;;;;;;4994131;28;20029;-69
2021/11/20 12:00:31;;;;;;;;;;;9.40;79.60;;;;;;5015954;28;20029;-68
2021/11/20 12:03:01;;;;;;;7.90;6.55;;;9.30;80.10;;;;;;5013990;28;20328;-68
2021/11/20 12:05:35;;;;;;;9.57;7.13;;;9.40;80.90;;;;;;5007702;28;20050;-68
2021/11/20 12:08:15;;;;;;;9.18;6.55;;;9.40;80.60;;;;;;5009096;28;20406;-69
2021/11/20 12:11:01;;;;;;;8.50;6.60;;;9.50;80.60;;;;;;5005467;28;20030;-68
2021/11/20 12:13:35;;;;;;;8.27;6.20;;;9.50;80.10;;;;;;5008020;28;20491;-69
2021/11/20 12:16:22;;;;;;;9.90;6.78;;;9.50;79.70;;;;;;5006902;28;20030;-70
2021/11/20 12:19:00;;;;;;;8.75;6.55;;;9.60;80.00;;;;;;5005969;28;20026;-68
2021/11/20 12:21:32;;;;;;;8.38;6.32;;;9.60;80.10;;;;;;5004712;28;20041;-69
2021/11/20 12:24:39;;;;;;;9.48;6.50;;;9.70;79.70;;;;;;5006022;28;20521;-68
2021/11/20 12:27:22;;;;;;;10.10;7.05;;;9.80;80.50;;;;;;5005694;28;20563;-68
2021/11/20 12:29:52;;;;;;;8.65;6.40;;;9.80;79.70;;;;;;5006348;28;20030;-68
2021/11/20 12:32:45;;;;;;;9.43;6.97;;;9.90;79.80;;;;;;5010021;28;20014;-69
2021/11/20 12:35:24;;;;;;;8.25;6.03;;;9.90;79.50;;;;;;5005533;28;20034;-69
2021/11/20 12:37:57;;;;;;;9.15;6.05;;;9.90;78.70;;;;;;5008922;28;20030;-68
2021/11/20 12:40:47;;;;;;;10.05;6.55;;;9.90;79.10;;;;;;5014983;28;20032;-69
2021/11/20 12:43:37;;;;;;;9.45;6.32;;;9.80;78.00;;;;;;5020144;28;20104;-69
2021/11/20 12:46:13;;;;;;;8.70;6.68;;;9.80;79.10;;;;;;5018298;28;20029;-68
2021/11/20 12:49:03;;;;;;;9.75;7.00;;;9.80;78.80;;;;;;5022051;28;20383;-71
2021/11/20 12:51:58;;;;;;;8.73;6.75;;;9.70;78.80;;;;;;5012961;28;20038;-70
2021/11/20 12:54:47;;;;;;;9.57;6.63;;;9.80;79.00;;;;;;5000650;28;20021;-70
2021/11/20 12:57:19;;;;;;;8.88;6.40;;;9.80;78.90;;;;;;5008658;28;20447;-70
2021/11/20 12:59:48;;;;;;;9.23;6.68;;;9.80;78.80;;;;;;5026214;28;20036;-70
2021/11/20 13:02:26;;;;;;;10.80;7.13;;;9.80;78.20;;;;;;5020765;28;20071;-72
2021/11/20 13:04:53;;;;;;;9.02;6.78;;;9.70;78.80;;;;;;5004177;28;20120;-69
2021/11/20 13:07:28;;;;;;;8.45;6.45;;;9.70;78.80;;;;;;5018765;28;20137;-71
2021/11/20 13:09:57;;;;;;;8.43;6.20;;;9.70;79.00;;;;;;5017178;28;20391;-71
2021/11/20 13:12:43;;;;;;;9.35;7.28;;;9.70;79.00;;;;;;5026939;28;20025;-71